Terminal Aerodrome Forecast
Issued by NWS Grand Forks, ND

Home | Current Version | Previous Version | Text Only | Print | Product List | Glossary Off
Versions: 1 2 3 4 5 6 7 8 9 10 11 12 13 14 15 16 17 18 19

047
FTUS43 KFGF 211402 AAA
TAFGFK
TAF AMD
KGFK 211402Z 2114/2212 16015G25KT P6SM BKN120
     FM220000 15014KT P6SM SCT110
     FM220400 20008KT P6SM SCT150
     FM220600 31007KT P6SM SCT200
     FM220800 34008KT P6SM SCT150=

USA.gov is the U.S. government's official web portal to all federal, state and local government web resources and services.